sensor_id;sensor_type;location;lat;lon;timestamp;P1;durP1;ratioP1;P2;durP2;ratioP2
22184;SDS011;11258;52.516;13.318;2022-07-29T00:01:00;7.78;;;3.00;;
22184;SDS011;11258;52.516;13.318;2022-07-29T00:03:26;5.03;;;2.80;;
22184;SDS011;11258;52.516;13.318;2022-07-29T00:05:51;9.52;;;3.53;;
22184;SDS011;11258;52.516;13.318;2022-07-29T00:08:18;5.95;;;3.53;;
22184;SDS011;11258;52.516;13.318;2022-07-29T00:10:44;8.30;;;3.15;;
22184;SDS011;11258;52.516;13.318;2022-07-29T00:13:09;6.05;;;3.38;;
22184;SDS011;11258;52.516;13.318;2022-07-29T00:15:35;7.78;;;3.58;;
22184;SDS011;11258;52.516;13.318;2022-07-29T00:18:00;5.43;;;3.05;;
22184;SDS011;11258;52.516;13.318;2022-07-29T00:20:26;6.30;;;3.30;;
22184;SDS011;11258;52.516;13.318;2022-07-29T00:22:52;6.25;;;3.20;;
22184;SDS011;11258;52.516;13.318;2022-07-29T00:25:18;8.93;;;3.67;;
22184;SDS011;11258;52.516;13.318;2022-07-29T00:27:43;7.05;;;3.70;;
22184;SDS011;11258;52.516;13.318;2022-07-29T00:30:11;5.25;;;3.88;;
22184;SDS011;11258;52.516;13.318;2022-07-29T00:32:37;9.00;;;3.80;;
22184;SDS011;11258;52.516;13.318;2022-07-29T00:35:02;7.90;;;4.30;;
22184;SDS011;11258;52.516;13.318;2022-07-29T00:37:47;8.57;;;3.30;;
22184;SDS011;11258;52.516;13.318;2022-07-29T00:40:13;5.32;;;3.58;;
22184;SDS011;11258;52.516;13.318;2022-07-29T00:42:44;6.00;;;3.60;;
22184;SDS011;11258;52.516;13.318;2022-07-29T00:45:12;6.55;;;3.58;;
22184;SDS011;11258;52.516;13.318;2022-07-29T00:47:38;7.00;;;4.00;;
22184;SDS011;11258;52.516;13.318;2022-07-29T00:50:04;8.70;;;3.50;;
22184;SDS011;11258;52.516;13.318;2022-07-29T00:52:32;8.68;;;4.25;;
22184;SDS011;11258;52.516;13.318;2022-07-29T00:54:59;6.13;;;3.80;;
22184;SDS011;11258;52.516;13.318;2022-07-29T00:57:24;9.82;;;3.55;;
22184;SDS011;11258;52.516;13.318;2022-07-29T00:59:50;9.77;;;4.13;;
22184;SDS011;11258;52.516;13.318;2022-07-29T01:02:15;13.13;;;4.75;;
22184;SDS011;11258;52.516;13.318;2022-07-29T01:04:41;5.85;;;3.63;;
22184;SDS011;11258;52.516;13.318;2022-07-29T01:07:06;6.10;;;3.35;;
22184;SDS011;11258;52.516;13.318;2022-07-29T01:09:33;7.15;;;3.67;;
22184;SDS011;11258;52.516;13.318;2022-07-29T01:12:00;8.20;;;3.63;;
22184;SDS011;11258;52.516;13.318;2022-07-29T01:14:26;7.75;;;3.97;;
22184;SDS011;11258;52.516;13.318;2022-07-29T01:17:00;7.75;;;3.60;;
22184;SDS011;11258;52.516;13.318;2022-07-29T01:21:58;7.10;;;3.90;;
22184;SDS011;11258;52.516;13.318;2022-07-29T01:24:33;5.28;;;3.53;;
22184;SDS011;11258;52.516;13.318;2022-07-29T01:30:05;8.02;;;3.35;;
22184;SDS011;11258;52.516;13.318;2022-07-29T01:32:32;5.95;;;3.38;;
22184;SDS011;11258;52.516;13.318;2022-07-29T01:37:28;8.10;;;3.45;;
22184;SDS011;11258;52.516;13.318;2022-07-29T01:39:58;6.03;;;3.55;;
22184;SDS011;11258;52.516;13.318;2022-07-29T01:42:27;7.18;;;4.00;;
22184;SDS011;11258;52.516;13.318;2022-07-29T01:45:08;5.30;;;3.33;;
22184;SDS011;11258;52.516;13.318;2022-07-29T01:47:56;5.82;;;3.13;;
22184;SDS011;11258;52.516;13.318;2022-07-29T01:50:31;9.18;;;4.07;;
22184;SDS011;11258;52.516;13.318;2022-07-29T01:53:00;5.45;;;3.63;;
22184;SDS011;11258;52.516;13.318;2022-07-29T01:55:32;5.28;;;3.40;;
22184;SDS011;11258;52.516;13.318;2022-07-29T01:58:02;8.00;;;3.53;;
22184;SDS011;11258;52.516;13.318;2022-07-29T02:00:29;7.68;;;3.50;;
22184;SDS011;11258;52.516;13.318;2022-07-29T02:02:57;6.28;;;3.80;;
22184;SDS011;11258;52.516;13.318;2022-07-29T02:05:25;7.72;;;4.03;;
22184;SDS011;11258;52.516;13.318;2022-07-29T02:07:53;8.40;;;3.28;;
22184;SDS011;11258;52.516;13.318;2022-07-29T02:10:21;5.03;;;3.40;;
22184;SDS011;11258;52.516;13.318;2022-07-29T02:12:48;5.10;;;3.03;;
22184;SDS011;11258;52.516;13.318;2022-07-29T02:15:15;6.05;;;3.10;;
22184;SDS011;11258;52.516;13.318;2022-07-29T02:17:43;7.70;;;3.55;;
22184;SDS011;11258;52.516;13.318;2022-07-29T02:20:22;5.63;;;3.28;;
22184;SDS011;11258;52.516;13.318;2022-07-29T02:22:49;7.57;;;3.30;;
22184;SDS011;11258;52.516;13.318;2022-07-29T02:25:17;5.68;;;2.85;;
22184;SDS011;11258;52.516;13.318;2022-07-29T02:27:44;4.65;;;2.97;;
22184;SDS011;11258;52.516;13.318;2022-07-29T02:30:10;5.15;;;2.97;;
22184;SDS011;11258;52.516;13.318;2022-07-29T02:32:37;7.63;;;6.00;;
22184;SDS011;11258;52.516;13.318;2022-07-29T02:35:06;7.20;;;4.40;;
22184;SDS011;11258;52.516;13.318;2022-07-29T02:37:34;5.47;;;3.90;;
22184;SDS011;11258;52.516;13.318;2022-07-29T02:40:01;7.22;;;4.28;;
22184;SDS011;11258;52.516;13.318;2022-07-29T02:42:28;5.60;;;3.40;;
22184;SDS011;11258;52.516;13.318;2022-07-29T02:44:56;5.75;;;4.00;;
22184;SDS011;11258;52.516;13.318;2022-07-29T02:47:30;5.68;;;4.03;;
22184;SDS011;11258;52.516;13.318;2022-07-29T02:50:14;7.00;;;3.60;;
22184;SDS011;11258;52.516;13.318;2022-07-29T02:52:43;6.82;;;4.53;;
22184;SDS011;11258;52.516;13.318;2022-07-29T02:57:47;6.95;;;4.68;;
22184;SDS011;11258;52.516;13.318;2022-07-29T03:00:23;5.05;;;3.60;;
22184;SDS011;11258;52.516;13.318;2022-07-29T03:02:53;6.72;;;3.63;;
22184;SDS011;11258;52.516;13.318;2022-07-29T03:05:21;6.88;;;3.72;;
22184;SDS011;11258;52.516;13.318;2022-07-29T03:07:50;8.90;;;4.97;;
22184;SDS011;11258;52.516;13.318;2022-07-29T03:10:25;5.60;;;3.42;;
22184;SDS011;11258;52.516;13.318;2022-07-29T03:12:52;7.45;;;4.13;;
22184;SDS011;11258;52.516;13.318;2022-07-29T03:15:19;7.07;;;3.55;;
22184;SDS011;11258;52.516;13.318;2022-07-29T03:17:45;5.38;;;4.43;;
22184;SDS011;11258;52.516;13.318;2022-07-29T03:20:12;10.57;;;6.57;;
22184;SDS011;11258;52.516;13.318;2022-07-29T03:22:41;7.18;;;3.70;;
22184;SDS011;11258;52.516;13.318;2022-07-29T03:25:09;10.82;;;4.88;;
22184;SDS011;11258;52.516;13.318;2022-07-29T03:27:42;7.80;;;4.28;;
22184;SDS011;11258;52.516;13.318;2022-07-29T03:30:09;5.97;;;3.45;;
22184;SDS011;11258;52.516;13.318;2022-07-29T03:32:36;7.45;;;4.07;;
22184;SDS011;11258;52.516;13.318;2022-07-29T03:35:02;7.57;;;3.70;;
22184;SDS011;11258;52.516;13.318;2022-07-29T03:37:29;4.93;;;3.60;;
22184;SDS011;11258;52.516;13.318;2022-07-29T03:39:55;6.65;;;3.90;;
22184;SDS011;11258;52.516;13.318;2022-07-29T03:42:23;6.18;;;3.47;;
22184;SDS011;11258;52.516;13.318;2022-07-29T03:44:50;9.32;;;3.53;;
22184;SDS011;11258;52.516;13.318;2022-07-29T03:47:19;6.55;;;3.72;;
22184;SDS011;11258;52.516;13.318;2022-07-29T03:49:47;8.80;;;5.20;;
22184;SDS011;11258;52.516;13.318;2022-07-29T03:52:15;9.50;;;3.75;;
22184;SDS011;11258;52.516;13.318;2022-07-29T03:54:41;8.32;;;4.38;;
22184;SDS011;11258;52.516;13.318;2022-07-29T03:57:07;7.05;;;4.22;;
22184;SDS011;11258;52.516;13.318;2022-07-29T03:59:35;8.15;;;5.40;;
22184;SDS011;11258;52.516;13.318;2022-07-29T04:02:03;8.88;;;4.78;;
22184;SDS011;11258;52.516;13.318;2022-07-29T04:04:32;7.95;;;3.63;;
22184;SDS011;11258;52.516;13.318;2022-07-29T04:06:59;4.30;;;3.90;;
22184;SDS011;11258;52.516;13.318;2022-07-29T04:09:25;4.70;;;3.78;;
22184;SDS011;11258;52.516;13.318;2022-07-29T04:11:50;10.32;;;5.25;;
22184;SDS011;11258;52.516;13.318;2022-07-29T04:14:16;9.15;;;4.13;;
22184;SDS011;11258;52.516;13.318;2022-07-29T04:16:42;7.78;;;4.63;;
22184;SDS011;11258;52.516;13.318;2022-07-29T04:19:07;6.32;;;4.35;;
22184;SDS011;11258;52.516;13.318;2022-07-29T04:21:39;6.53;;;3.55;;
22184;SDS011;11258;52.516;13.318;2022-07-29T04:24:06;6.93;;;3.80;;
22184;SDS011;11258;52.516;13.318;2022-07-29T04:26:32;8.68;;;4.70;;
22184;SDS011;11258;52.516;13.318;2022-07-29T04:28:58;8.45;;;4.38;;
22184;SDS011;11258;52.516;13.318;2022-07-29T04:31:24;6.93;;;3.80;;
22184;SDS011;11258;52.516;13.318;2022-07-29T04:33:49;4.35;;;2.83;;
22184;SDS011;11258;52.516;13.318;2022-07-29T04:36:15;10.23;;;4.50;;
22184;SDS011;11258;52.516;13.318;2022-07-29T04:38:40;10.38;;;5.07;;
22184;SDS011;11258;52.516;13.318;2022-07-29T04:41:06;6.13;;;4.00;;
22184;SDS011;11258;52.516;13.318;2022-07-29T04:43:33;7.38;;;4.55;;
22184;SDS011;11258;52.516;13.318;2022-07-29T04:45:59;7.03;;;3.90;;
22184;SDS011;11258;52.516;13.318;2022-07-29T04:48:25;7.43;;;4.22;;
22184;SDS011;11258;52.516;13.318;2022-07-29T04:50:51;7.90;;;4.38;;
22184;SDS011;11258;52.516;13.318;2022-07-29T04:53:17;6.47;;;3.72;;
22184;SDS011;11258;52.516;13.318;2022-07-29T04:55:42;5.72;;;4.47;;
22184;SDS011;11258;52.516;13.318;2022-07-29T04:58:09;4.97;;;4.28;;
22184;SDS011;11258;52.516;13.318;2022-07-29T05:00:35;8.05;;;3.03;;
22184;SDS011;11258;52.516;13.318;2022-07-29T05:03:01;5.97;;;3.30;;
22184;SDS011;11258;52.516;13.318;2022-07-29T05:05:26;4.68;;;3.00;;
22184;SDS011;11258;52.516;13.318;2022-07-29T05:07:52;5.55;;;2.70;;
22184;SDS011;11258;52.516;13.318;2022-07-29T05:10:18;7.13;;;3.13;;
22184;SDS011;11258;52.516;13.318;2022-07-29T05:12:43;6.70;;;3.20;;
22184;SDS011;11258;52.516;13.318;2022-07-29T05:15:09;6.60;;;3.78;;
22184;SDS011;11258;52.516;13.318;2022-07-29T05:17:35;12.18;;;3.28;;
22184;SDS011;11258;52.516;13.318;2022-07-29T05:20:00;5.75;;;2.85;;
22184;SDS011;11258;52.516;13.318;2022-07-29T05:22:26;4.13;;;2.95;;
22184;SDS011;11258;52.516;13.318;2022-07-29T05:24:51;8.32;;;3.42;;
22184;SDS011;11258;52.516;13.318;2022-07-29T05:27:17;8.98;;;3.28;;
22184;SDS011;11258;52.516;13.318;2022-07-29T05:29:42;9.50;;;2.67;;
22184;SDS011;11258;52.516;13.318;2022-07-29T05:32:09;9.65;;;4.18;;
22184;SDS011;11258;52.516;13.318;2022-07-29T05:34:34;5.85;;;3.00;;
22184;SDS011;11258;52.516;13.318;2022-07-29T05:37:00;8.00;;;3.03;;
22184;SDS011;11258;52.516;13.318;2022-07-29T05:39:26;7.10;;;3.75;;
22184;SDS011;11258;52.516;13.318;2022-07-29T05:41:51;11.30;;;4.40;;
22184;SDS011;11258;52.516;13.318;2022-07-29T05:44:17;9.10;;;4.00;;
22184;SDS011;11258;52.516;13.318;2022-07-29T05:46:42;7.10;;;3.78;;
22184;SDS011;11258;52.516;13.318;2022-07-29T05:49:08;9.93;;;3.83;;
22184;SDS011;11258;52.516;13.318;2022-07-29T05:51:34;4.55;;;3.50;;
22184;SDS011;11258;52.516;13.318;2022-07-29T05:53:59;8.48;;;3.72;;
22184;SDS011;11258;52.516;13.318;2022-07-29T05:56:25;6.40;;;3.83;;
22184;SDS011;11258;52.516;13.318;2022-07-29T05:58:51;7.53;;;3.50;;
22184;SDS011;11258;52.516;13.318;2022-07-29T06:01:17;5.80;;;2.88;;
22184;SDS011;11258;52.516;13.318;2022-07-29T06:03:43;7.22;;;3.90;;
22184;SDS011;11258;52.516;13.318;2022-07-29T06:06:08;5.45;;;3.30;;
22184;SDS011;11258;52.516;13.318;2022-07-29T06:08:34;8.93;;;3.58;;
22184;SDS011;11258;52.516;13.318;2022-07-29T06:11:01;6.18;;;3.17;;
22184;SDS011;11258;52.516;13.318;2022-07-29T06:13:27;9.40;;;3.53;;
22184;SDS011;11258;52.516;13.318;2022-07-29T06:15:52;8.43;;;3.40;;
22184;SDS011;11258;52.516;13.318;2022-07-29T06:18:18;8.95;;;2.70;;
22184;SDS011;11258;52.516;13.318;2022-07-29T06:20:45;8.38;;;3.17;;
22184;SDS011;11258;52.516;13.318;2022-07-29T06:23:11;8.80;;;3.08;;
22184;SDS011;11258;52.516;13.318;2022-07-29T06:25:37;6.05;;;3.20;;
22184;SDS011;11258;52.516;13.318;2022-07-29T06:28:04;6.50;;;3.10;;
22184;SDS011;11258;52.516;13.318;2022-07-29T06:30:29;6.20;;;2.95;;
22184;SDS011;11258;52.516;13.318;2022-07-29T06:32:55;4.60;;;2.70;;
22184;SDS011;11258;52.516;13.318;2022-07-29T06:35:21;18.05;;;3.30;;
22184;SDS011;11258;52.516;13.318;2022-07-29T06:37:46;5.28;;;3.15;;
22184;SDS011;11258;52.516;13.318;2022-07-29T06:40:12;9.25;;;3.78;;
22184;SDS011;11258;52.516;13.318;2022-07-29T06:42:56;7.35;;;3.10;;
22184;SDS011;11258;52.516;13.318;2022-07-29T06:45:22;7.68;;;3.40;;
22184;SDS011;11258;52.516;13.318;2022-07-29T06:47:49;5.75;;;2.95;;
22184;SDS011;11258;52.516;13.318;2022-07-29T06:50:14;5.65;;;3.17;;
22184;SDS011;11258;52.516;13.318;2022-07-29T06:52:40;5.97;;;3.65;;
22184;SDS011;11258;52.516;13.318;2022-07-29T06:55:06;6.57;;;3.33;;
22184;SDS011;11258;52.516;13.318;2022-07-29T06:57:33;7.60;;;2.92;;
22184;SDS011;11258;52.516;13.318;2022-07-29T06:59:58;5.22;;;3.00;;
22184;SDS011;11258;52.516;13.318;2022-07-29T07:02:24;5.40;;;2.80;;
22184;SDS011;11258;52.516;13.318;2022-07-29T07:04:50;7.25;;;3.10;;
22184;SDS011;11258;52.516;13.318;2022-07-29T07:07:16;4.55;;;2.75;;
22184;SDS011;11258;52.516;13.318;2022-07-29T07:09:41;9.27;;;2.97;;
22184;SDS011;11258;52.516;13.318;2022-07-29T07:12:07;8.45;;;2.88;;
22184;SDS011;11258;52.516;13.318;2022-07-29T07:14:33;4.93;;;2.40;;
22184;SDS011;11258;52.516;13.318;2022-07-29T07:16:59;5.63;;;3.10;;
22184;SDS011;11258;52.516;13.318;2022-07-29T07:19:25;7.38;;;3.53;;
22184;SDS011;11258;52.516;13.318;2022-07-29T07:21:54;8.07;;;4.22;;
22184;SDS011;11258;52.516;13.318;2022-07-29T07:24:20;5.82;;;2.92;;
22184;SDS011;11258;52.516;13.318;2022-07-29T07:26:46;8.95;;;3.30;;
22184;SDS011;11258;52.516;13.318;2022-07-29T07:29:11;5.53;;;3.53;;
22184;SDS011;11258;52.516;13.318;2022-07-29T07:31:37;4.65;;;2.30;;
22184;SDS011;11258;52.516;13.318;2022-07-29T07:34:03;11.80;;;2.65;;
22184;SDS011;11258;52.516;13.318;2022-07-29T07:36:29;6.18;;;2.60;;
22184;SDS011;11258;52.516;13.318;2022-07-29T07:38:54;7.75;;;2.47;;
22184;SDS011;11258;52.516;13.318;2022-07-29T07:41:20;6.20;;;2.78;;
22184;SDS011;11258;52.516;13.318;2022-07-29T07:43:47;6.35;;;3.10;;
22184;SDS011;11258;52.516;13.318;2022-07-29T07:46:13;6.00;;;2.22;;
22184;SDS011;11258;52.516;13.318;2022-07-29T07:48:38;6.28;;;2.20;;
22184;SDS011;11258;52.516;13.318;2022-07-29T07:51:04;7.65;;;2.15;;
22184;SDS011;11258;52.516;13.318;2022-07-29T07:53:29;8.70;;;2.67;;
22184;SDS011;11258;52.516;13.318;2022-07-29T07:55:55;5.95;;;3.25;;
22184;SDS011;11258;52.516;13.318;2022-07-29T07:58:21;11.15;;;2.83;;
22184;SDS011;11258;52.516;13.318;2022-07-29T08:00:46;7.30;;;2.25;;
22184;SDS011;11258;52.516;13.318;2022-07-29T08:03:12;7.50;;;2.67;;
22184;SDS011;11258;52.516;13.318;2022-07-29T08:05:38;5.20;;;2.28;;
22184;SDS011;11258;52.516;13.318;2022-07-29T08:08:05;6.10;;;2.50;;
22184;SDS011;11258;52.516;13.318;2022-07-29T08:10:31;5.10;;;2.22;;
22184;SDS011;11258;52.516;13.318;2022-07-29T08:13:15;5.00;;;1.92;;
22184;SDS011;11258;52.516;13.318;2022-07-29T08:15:40;4.78;;;2.08;;
22184;SDS011;11258;52.516;13.318;2022-07-29T08:18:07;5.82;;;2.30;;
22184;SDS011;11258;52.516;13.318;2022-07-29T08:20:33;4.65;;;2.08;;
22184;SDS011;11258;52.516;13.318;2022-07-29T08:23:00;6.95;;;1.70;;
22184;SDS011;11258;52.516;13.318;2022-07-29T08:25:27;5.60;;;1.90;;
22184;SDS011;11258;52.516;13.318;2022-07-29T08:27:52;4.10;;;2.00;;
22184;SDS011;11258;52.516;13.318;2022-07-29T08:30:18;5.97;;;2.45;;
22184;SDS011;11258;52.516;13.318;2022-07-29T08:32:44;2.42;;;1.60;;
22184;SDS011;11258;52.516;13.318;2022-07-29T08:35:09;5.55;;;2.42;;
22184;SDS011;11258;52.516;13.318;2022-07-29T08:37:35;6.53;;;1.83;;
22184;SDS011;11258;52.516;13.318;2022-07-29T08:40:01;3.65;;;1.55;;
22184;SDS011;11258;52.516;13.318;2022-07-29T08:42:26;5.35;;;2.22;;
22184;SDS011;11258;52.516;13.318;2022-07-29T08:44:52;6.28;;;2.30;;
22184;SDS011;11258;52.516;13.318;2022-07-29T08:47:19;4.22;;;2.00;;
22184;SDS011;11258;52.516;13.318;2022-07-29T08:49:45;4.00;;;1.75;;
22184;SDS011;11258;52.516;13.318;2022-07-29T08:52:13;4.18;;;1.90;;
22184;SDS011;11258;52.516;13.318;2022-07-29T08:54:40;5.70;;;2.20;;
22184;SDS011;11258;52.516;13.318;2022-07-29T08:57:09;6.95;;;2.20;;
22184;SDS011;11258;52.516;13.318;2022-07-29T08:59:37;3.53;;;1.90;;
22184;SDS011;11258;52.516;13.318;2022-07-29T09:02:05;5.38;;;2.25;;
22184;SDS011;11258;52.516;13.318;2022-07-29T09:04:43;3.42;;;1.85;;
22184;SDS011;11258;52.516;13.318;2022-07-29T09:07:10;5.40;;;2.03;;
22184;SDS011;11258;52.516;13.318;2022-07-29T09:09:41;5.28;;;2.58;;
22184;SDS011;11258;52.516;13.318;2022-07-29T09:12:07;7.07;;;2.45;;
22184;SDS011;11258;52.516;13.318;2022-07-29T09:14:39;6.05;;;2.33;;
22184;SDS011;11258;52.516;13.318;2022-07-29T09:17:06;3.42;;;1.90;;
22184;SDS011;11258;52.516;13.318;2022-07-29T09:19:33;4.03;;;2.53;;
22184;SDS011;11258;52.516;13.318;2022-07-29T09:22:01;9.00;;;3.70;;
22184;SDS011;11258;52.516;13.318;2022-07-29T09:27:00;6.10;;;2.13;;
22184;SDS011;11258;52.516;13.318;2022-07-29T09:29:26;4.00;;;2.00;;
22184;SDS011;11258;52.516;13.318;2022-07-29T09:31:53;9.45;;;4.28;;
22184;SDS011;11258;52.516;13.318;2022-07-29T09:34:24;4.38;;;2.83;;
22184;SDS011;11258;52.516;13.318;2022-07-29T09:36:52;5.07;;;2.70;;
22184;SDS011;11258;52.516;13.318;2022-07-29T09:41:58;5.65;;;2.63;;
22184;SDS011;11258;52.516;13.318;2022-07-29T09:44:26;5.03;;;2.00;;
22184;SDS011;11258;52.516;13.318;2022-07-29T09:47:05;4.05;;;2.42;;
22184;SDS011;11258;52.516;13.318;2022-07-29T09:49:33;4.65;;;2.30;;
22184;SDS011;11258;52.516;13.318;2022-07-29T09:54:28;3.25;;;1.98;;
22184;SDS011;11258;52.516;13.318;2022-07-29T09:56:59;4.78;;;2.05;;
22184;SDS011;11258;52.516;13.318;2022-07-29T09:59:24;4.25;;;2.60;;
22184;SDS011;11258;52.516;13.318;2022-07-29T10:01:51;5.72;;;2.00;;
22184;SDS011;11258;52.516;13.318;2022-07-29T10:04:17;6.95;;;2.53;;
22184;SDS011;11258;52.516;13.318;2022-07-29T10:06:59;6.15;;;2.53;;
22184;SDS011;11258;52.516;13.318;2022-07-29T10:09:26;3.00;;;2.00;;
22184;SDS011;11258;52.516;13.318;2022-07-29T10:12:08;6.40;;;1.95;;
22184;SDS011;11258;52.516;13.318;2022-07-29T10:14:36;23.75;;;4.80;;
22184;SDS011;11258;52.516;13.318;2022-07-29T10:17:03;4.10;;;1.95;;
22184;SDS011;11258;52.516;13.318;2022-07-29T10:19:30;4.13;;;1.70;;
22184;SDS011;11258;52.516;13.318;2022-07-29T10:21:57;4.85;;;2.13;;
22184;SDS011;11258;52.516;13.318;2022-07-29T10:24:24;5.35;;;2.50;;
22184;SDS011;11258;52.516;13.318;2022-07-29T10:26:55;3.95;;;2.10;;
22184;SDS011;11258;52.516;13.318;2022-07-29T10:29:21;6.82;;;2.33;;
22184;SDS011;11258;52.516;13.318;2022-07-29T10:31:53;3.97;;;1.70;;
22184;SDS011;11258;52.516;13.318;2022-07-29T10:34:57;6.97;;;1.77;;
22184;SDS011;11258;52.516;13.318;2022-07-29T10:37:57;4.97;;;2.00;;
22184;SDS011;11258;52.516;13.318;2022-07-29T10:44:03;4.95;;;2.90;;
22184;SDS011;11258;52.516;13.318;2022-07-29T10:46:38;4.88;;;2.28;;
22184;SDS011;11258;52.516;13.318;2022-07-29T10:49:12;3.88;;;2.35;;
22184;SDS011;11258;52.516;13.318;2022-07-29T10:51:59;6.60;;;1.85;;
22184;SDS011;11258;52.516;13.318;2022-07-29T10:57:17;2.95;;;1.98;;
22184;SDS011;11258;52.516;13.318;2022-07-29T10:59:48;3.25;;;1.65;;
22184;SDS011;11258;52.516;13.318;2022-07-29T11:05:01;2.55;;;1.63;;
22184;SDS011;11258;52.516;13.318;2022-07-29T11:07:28;7.82;;;2.40;;
22184;SDS011;11258;52.516;13.318;2022-07-29T11:15:15;4.80;;;2.40;;
22184;SDS011;11258;52.516;13.318;2022-07-29T11:20:32;4.53;;;2.08;;
22184;SDS011;11258;52.516;13.318;2022-07-29T11:22:59;3.38;;;2.22;;
22184;SDS011;11258;52.516;13.318;2022-07-29T11:25:26;4.20;;;2.05;;
22184;SDS011;11258;52.516;13.318;2022-07-29T11:27:52;2.60;;;1.85;;
22184;SDS011;11258;52.516;13.318;2022-07-29T11:31:06;5.88;;;2.20;;
22184;SDS011;11258;52.516;13.318;2022-07-29T11:33:29;5.88;;;2.08;;
22184;SDS011;11258;52.516;13.318;2022-07-29T11:36:11;4.47;;;2.22;;
22184;SDS011;11258;52.516;13.318;2022-07-29T11:38:40;3.50;;;2.30;;
22184;SDS011;11258;52.516;13.318;2022-07-29T11:43:45;5.97;;;2.50;;
22184;SDS011;11258;52.516;13.318;2022-07-29T11:46:49;23.30;;;4.88;;
22184;SDS011;11258;52.516;13.318;2022-07-29T11:49:22;5.28;;;2.10;;
22184;SDS011;11258;52.516;13.318;2022-07-29T11:51:52;7.82;;;2.13;;
22184;SDS011;11258;52.516;13.318;2022-07-29T11:54:22;4.40;;;2.20;;
22184;SDS011;11258;52.516;13.318;2022-07-29T11:56:57;5.10;;;2.53;;
22184;SDS011;11258;52.516;13.318;2022-07-29T11:59:23;5.15;;;2.20;;
22184;SDS011;11258;52.516;13.318;2022-07-29T12:01:56;3.85;;;2.33;;
22184;SDS011;11258;52.516;13.318;2022-07-29T12:04:23;5.75;;;2.33;;
22184;SDS011;11258;52.516;13.318;2022-07-29T12:06:50;5.05;;;2.10;;
22184;SDS011;11258;52.516;13.318;2022-07-29T12:09:16;4.20;;;2.20;;
22184;SDS011;11258;52.516;13.318;2022-07-29T12:11:43;4.28;;;2.17;;
22184;SDS011;11258;52.516;13.318;2022-07-29T12:14:08;4.05;;;1.95;;
22184;SDS011;11258;52.516;13.318;2022-07-29T12:16:37;5.40;;;2.08;;
22184;SDS011;11258;52.516;13.318;2022-07-29T12:19:03;4.68;;;2.40;;
22184;SDS011;11258;52.516;13.318;2022-07-29T12:21:48;5.30;;;2.45;;
22184;SDS011;11258;52.516;13.318;2022-07-29T12:24:16;3.63;;;2.28;;
22184;SDS011;11258;52.516;13.318;2022-07-29T12:26:56;4.53;;;2.47;;
22184;SDS011;11258;52.516;13.318;2022-07-29T12:29:23;6.07;;;2.63;;
22184;SDS011;11258;52.516;13.318;2022-07-29T12:31:52;3.28;;;2.67;;
22184;SDS011;11258;52.516;13.318;2022-07-29T12:34:19;3.10;;;2.22;;
22184;SDS011;11258;52.516;13.318;2022-07-29T12:36:47;10.68;;;2.75;;
22184;SDS011;11258;52.516;13.318;2022-07-29T12:39:15;4.88;;;2.90;;
22184;SDS011;11258;52.516;13.318;2022-07-29T12:41:42;5.32;;;2.67;;
22184;SDS011;11258;52.516;13.318;2022-07-29T12:44:08;2.70;;;2.33;;
22184;SDS011;11258;52.516;13.318;2022-07-29T12:46:34;6.45;;;2.80;;
22184;SDS011;11258;52.516;13.318;2022-07-29T12:49:00;3.38;;;2.72;;
22184;SDS011;11258;52.516;13.318;2022-07-29T12:51:32;4.22;;;2.30;;
22184;SDS011;11258;52.516;13.318;2022-07-29T12:54:11;3.22;;;2.63;;
22184;SDS011;11258;52.516;13.318;2022-07-29T12:56:39;5.07;;;2.70;;
22184;SDS011;11258;52.516;13.318;2022-07-29T12:59:13;4.47;;;2.60;;
22184;SDS011;11258;52.516;13.318;2022-07-29T13:01:44;7.35;;;2.42;;
22184;SDS011;11258;52.516;13.318;2022-07-29T13:04:23;7.72;;;2.97;;
22184;SDS011;11258;52.516;13.318;2022-07-29T13:06:59;7.05;;;2.72;;
22184;SDS011;11258;52.516;13.318;2022-07-29T13:09:35;4.78;;;2.58;;
22184;SDS011;11258;52.516;13.318;2022-07-29T13:12:08;3.38;;;2.72;;
22184;SDS011;11258;52.516;13.318;2022-07-29T13:14:39;4.13;;;2.45;;
22184;SDS011;11258;52.516;13.318;2022-07-29T13:17:13;5.40;;;2.78;;
22184;SDS011;11258;52.516;13.318;2022-07-29T13:19:46;2.95;;;2.30;;
22184;SDS011;11258;52.516;13.318;2022-07-29T13:22:15;4.20;;;2.70;;
22184;SDS011;11258;52.516;13.318;2022-07-29T13:24:53;4.18;;;2.92;;
22184;SDS011;11258;52.516;13.318;2022-07-29T13:27:24;3.97;;;3.00;;
22184;SDS011;11258;52.516;13.318;2022-07-29T13:29:51;5.13;;;2.65;;
22184;SDS011;11258;52.516;13.318;2022-07-29T13:32:18;5.53;;;2.50;;
22184;SDS011;11258;52.516;13.318;2022-07-29T13:34:44;4.80;;;2.50;;
22184;SDS011;11258;52.516;13.318;2022-07-29T13:37:09;5.53;;;3.63;;
22184;SDS011;11258;52.516;13.318;2022-07-29T13:39:35;6.90;;;4.40;;
22184;SDS011;11258;52.516;13.318;2022-07-29T13:42:02;7.95;;;3.38;;
22184;SDS011;11258;52.516;13.318;2022-07-29T13:44:28;3.88;;;2.95;;
22184;SDS011;11258;52.516;13.318;2022-07-29T13:46:54;4.93;;;2.60;;
22184;SDS011;11258;52.516;13.318;2022-07-29T13:49:20;8.27;;;3.08;;
22184;SDS011;11258;52.516;13.318;2022-07-29T13:51:46;4.18;;;2.97;;
22184;SDS011;11258;52.516;13.318;2022-07-29T13:54:12;4.05;;;3.60;;
22184;SDS011;11258;52.516;13.318;2022-07-29T13:56:37;6.55;;;2.78;;
22184;SDS011;11258;52.516;13.318;2022-07-29T13:59:03;6.28;;;3.17;;
22184;SDS011;11258;52.516;13.318;2022-07-29T14:01:28;6.25;;;2.63;;
22184;SDS011;11258;52.516;13.318;2022-07-29T14:03:55;6.05;;;2.90;;
22184;SDS011;11258;52.516;13.318;2022-07-29T14:06:21;8.63;;;3.10;;
22184;SDS011;11258;52.516;13.318;2022-07-29T14:08:46;4.22;;;3.80;;
22184;SDS011;11258;52.516;13.318;2022-07-29T14:11:12;5.53;;;3.97;;
22184;SDS011;11258;52.516;13.318;2022-07-29T14:13:39;2.95;;;2.65;;
22184;SDS011;11258;52.516;13.318;2022-07-29T14:16:04;3.80;;;2.40;;
22184;SDS011;11258;52.516;13.318;2022-07-29T14:18:30;5.60;;;2.85;;
22184;SDS011;11258;52.516;13.318;2022-07-29T14:20:56;5.60;;;3.47;;
22184;SDS011;11258;52.516;13.318;2022-07-29T14:23:22;5.53;;;2.75;;
22184;SDS011;11258;52.516;13.318;2022-07-29T14:25:47;5.30;;;2.67;;
22184;SDS011;11258;52.516;13.318;2022-07-29T14:28:13;4.45;;;3.20;;
22184;SDS011;11258;52.516;13.318;2022-07-29T14:30:38;5.55;;;3.08;;
22184;SDS011;11258;52.516;13.318;2022-07-29T14:33:04;3.47;;;2.83;;
22184;SDS011;11258;52.516;13.318;2022-07-29T14:35:30;5.97;;;3.13;;
22184;SDS011;11258;52.516;13.318;2022-07-29T14:37:55;5.32;;;2.83;;
22184;SDS011;11258;52.516;13.318;2022-07-29T14:40:22;6.45;;;3.97;;
22184;SDS011;11258;52.516;13.318;2022-07-29T14:42:48;5.32;;;3.20;;
22184;SDS011;11258;52.516;13.318;2022-07-29T14:45:14;4.55;;;3.08;;
22184;SDS011;11258;52.516;13.318;2022-07-29T14:47:39;7.63;;;4.10;;
22184;SDS011;11258;52.516;13.318;2022-07-29T14:50:05;4.97;;;3.08;;
22184;SDS011;11258;52.516;13.318;2022-07-29T14:52:31;3.65;;;2.63;;
22184;SDS011;11258;52.516;13.318;2022-07-29T14:54:57;4.68;;;2.80;;
22184;SDS011;11258;52.516;13.318;2022-07-29T14:57:23;5.97;;;3.03;;
22184;SDS011;11258;52.516;13.318;2022-07-29T14:59:49;5.75;;;2.80;;
22184;SDS011;11258;52.516;13.318;2022-07-29T15:02:15;3.38;;;2.58;;
22184;SDS011;11258;52.516;13.318;2022-07-29T15:04:41;5.18;;;2.90;;
22184;SDS011;11258;52.516;13.318;2022-07-29T15:07:06;3.58;;;3.20;;
22184;SDS011;11258;52.516;13.318;2022-07-29T15:09:33;7.72;;;3.45;;
22184;SDS011;11258;52.516;13.318;2022-07-29T15:11:58;3.60;;;2.35;;
22184;SDS011;11258;52.516;13.318;2022-07-29T15:14:24;4.95;;;2.90;;
22184;SDS011;11258;52.516;13.318;2022-07-29T15:16:49;3.85;;;3.10;;